Ns Sabina — 3EEP8 — position and weather

sailwx.info

Track history (hours):
 
Tides and Currents Weather Stations Pressure Air Temp Water Temp Dewpoint Dewpoint Depression Visibility Wind Speed Wind Dir Waves Ship Positions

Ns Sabina

Last reported at 2017-Oct-17 06:00 UTC. Time now 2017-Oct-17 06:19 UTC.
Position N 37°57' E 023°36'.

Length 82 m; draft 4.9 m.

Type: Cargo ship. MMSI: 371763000.

Date/timePositionNaut miles runAvg speedWind from/ knotsBaromVisibWave heightAir tempDewpointWater temp
2017-Oct-17 06:00N 37°57' E 023°36'0 0.0
2017-Oct-17 05:30N 37°57' E 023°36'0 0.0
2017-Oct-17 05:00N 37°57' E 023°36'0 0.0
2017-Oct-17 04:30N 37°57' E 023°36'0 0.0
2017-Oct-17 04:00N 37°57' E 023°36'0 0.0
2017-Oct-17 03:30N 37°57' E 023°36'0 0.0
2017-Oct-17 03:00N 37°57' E 023°36'0 0.0
2017-Oct-17 02:30N 37°57' E 023°36'0 0.0
2017-Oct-17 02:00N 37°57' E 023°36'0 0.0
2017-Oct-17 01:30N 37°57' E 023°36'0 0.0
2017-Oct-17 01:00N 37°57' E 023°36'0 0.0
2017-Oct-17 00:30N 37°57' E 023°36'0 0.0
2017-Oct-17 00:00N 37°57' E 023°36'0 0.0
2017-Oct-16 23:30N 37°57' E 023°36'0 0.0
2017-Oct-16 23:00N 37°57' E 023°36'0 0.0
2017-Oct-16 22:30N 37°57' E 023°36'0 0.0
2017-Oct-16 22:00N 37°57' E 023°36'0 0.0
2017-Oct-16 21:30N 37°57' E 023°36'0 0.0
2017-Oct-16 21:00N 37°57' E 023°36'0 0.0
2017-Oct-16 20:30N 37°57' E 023°36'0 0.0
2017-Oct-16 20:00N 37°57' E 023°36'0 0.0
2017-Oct-16 19:30N 37°57' E 023°36'0 0.0
2017-Oct-16 19:00N 37°57' E 023°36'0 0.0
2017-Oct-16 18:30N 37°57' E 023°36'0 0.0
2017-Oct-16 18:00N 37°57' E 023°36'0 0.0
2017-Oct-16 17:30N 37°57' E 023°36'0 0.0
2017-Oct-16 17:00N 37°57' E 023°36'0 0.0
2017-Oct-16 16:30N 37°57' E 023°36'0 0.0
2017-Oct-16 16:00N 37°57' E 023°36'0 0.0
2017-Oct-16 15:30N 37°57' E 023°36'0 0.0
2017-Oct-16 15:00N 37°57' E 023°36'0 0.0
2017-Oct-16 14:00N 37°57' E 023°36'0 0.0
2017-Oct-16 13:30N 37°57' E 023°36'0 0.0
2017-Oct-16 13:00N 37°57' E 023°36'0 0.0
2017-Oct-16 12:30N 37°57' E 023°36'0 0.0
2017-Oct-16 12:00N 37°57' E 023°36'0 0.0
2017-Oct-16 11:30N 37°57' E 023°36'0 0.0
2017-Oct-16 11:00N 37°57' E 023°36'0 0.0
2017-Oct-16 10:30N 37°57' E 023°36'0 0.0
2017-Oct-16 10:00N 37°57' E 023°36'0 0.0
2017-Oct-16 09:30N 37°57' E 023°36'0 0.0
2017-Oct-16 09:00N 37°57' E 023°36'0 0.0
2017-Oct-16 08:30N 37°57' E 023°36'0 0.0
2017-Oct-16 08:00N 37°57' E 023°36'0 0.0
2017-Oct-16 07:30N 37°57' E 023°36'0 0.0
2017-Oct-16 07:00N 37°57' E 023°36'0 0.0
2017-Oct-16 06:30N 37°57' E 023°36'0 0.0
2017-Oct-16 06:00N 37°57' E 023°36'1 2.0
2017-Oct-16 05:30N 37°57' E 023°36'1 2.1
2017-Oct-16 05:00N 37°56' E 023°36'2 3.0
2017-Oct-16 04:30N 37°55' E 023°34'0 0.1
2017-Oct-16 04:00N 37°55' E 023°34'0 0.0
2017-Oct-16 03:30N 37°55' E 023°34'0 0.0
2017-Oct-16 03:00N 37°55' E 023°34'0 0.0
2017-Oct-16 02:30N 37°55' E 023°34'0 0.0
2017-Oct-16 02:00N 37°55' E 023°34'0 0.0
2017-Oct-16 01:26N 37°55' E 023°34'0 0.0
2017-Oct-16 00:59N 37°55' E 023°34'0 0.0
2017-Oct-16 00:29N 37°55' E 023°34'0 0.0
2017-Oct-15 23:59N 37°55' E 023°34'0 0.0
2017-Oct-15 23:28N 37°55' E 023°34'0 0.0
2017-Oct-15 22:58N 37°55' E 023°34'0 0.0
2017-Oct-15 22:28N 37°55' E 023°34'0 0.0
2017-Oct-15 21:58N 37°55' E 023°34'0 0.0
2017-Oct-15 21:28N 37°55' E 023°34'0 0.0
2017-Oct-15 21:00N 37°55' E 023°34'0 0.0
2017-Oct-15 20:30N 37°55' E 023°34'0 0.0
2017-Oct-15 20:00N 37°55' E 023°34'0 0.0
2017-Oct-15 19:30N 37°55' E 023°34'0 0.0
2017-Oct-15 19:01N 37°55' E 023°34'1 2.6
2017-Oct-15 18:30N 37°54' E 023°34'3 6.7
2017-Oct-15 18:01N 37°51' E 023°32'4 8.2
2017-Oct-15 17:31N 37°50' E 023°27'4 8.7
2017-Oct-15 17:00N 37°51' E 023°21'5 8.5
2017-Oct-15 16:26N 37°52' E 023°15'4 8.8
2017-Oct-15 16:00N 37°53' E 023°11'4 8.7
2017-Oct-15 15:31N 37°53' E 023°05'4 7.8
2017-Oct-15 15:00N 37°55' E 023°01'4 3.6
2017-Oct-15 13:51N 37°58' E 022°58'336 6.9
2017-Oct-13 13:16N 37°54' E 015°51'410.0
2017-Oct-13 12:52N 37°54' E 015°46'4 9.4
2017-Oct-13 12:25N 37°56' E 015°41'4 9.5
2017-Oct-13 12:00N 37°59' E 015°38'5 9.4
2017-Oct-13 11:30N 38°03' E 015°36'510.2
2017-Oct-13 11:00N 38°08' E 015°36'5 9.7
2017-Oct-13 10:30N 38°13' E 015°36'4 8.3
2017-Oct-13 10:01N 38°16' E 015°40'5 8.8
2017-Oct-13 09:28N 38°20' E 015°37'5 9.9
2017-Oct-13 09:01N 38°22' E 015°32'5 9.8
2017-Oct-13 08:29N 38°24' E 015°26'5 9.8
2017-Oct-13 08:00N 38°27' E 015°21'5 9.9
2017-Oct-13 07:29N 38°30' E 015°15'7 9.9
2017-Oct-13 06:49N 38°33' E 015°08'  
2017-Oct-10 23:58N 43°04' E 005°17'5 9.1
2017-Oct-10 23:28N 43°07' E 005°12'4 9.3
2017-Oct-10 23:00N 43°09' E 005°07'5 9.4
2017-Oct-10 22:30N 43°12' E 005°01'5 9.9
2017-Oct-10 22:00N 43°17' E 004°59'5 9.7
2017-Oct-10 21:30N 43°21' E 004°58'4 8.5
2017-Oct-10 21:00N 43°24' E 004°53'2 3.3
2017-Oct-10 20:30N 43°24' E 004°51'0 0.0
2017-Oct-10 19:26N 43°24' E 004°51'0 0.0
2017-Oct-10 18:56N 43°24' E 004°51'0 0.0
2017-Oct-10 18:25N 43°24' E 004°51'0 0.0
2017-Oct-10 17:58N 43°24' E 004°51'0 0.0
2017-Oct-10 17:28N 43°24' E 004°51'0 0.0
2017-Oct-10 16:58N 43°24' E 004°51'0 0.0
2017-Oct-10 16:25N 43°24' E 004°51'0 0.0
2017-Oct-10 15:57N 43°24' E 004°51'0 0.0
2017-Oct-10 15:30N 43°24' E 004°51'0 0.0
2017-Oct-10 14:57N 43°24' E 004°51'0 0.0
2017-Oct-10 14:00N 43°24' E 004°51'0 0.0
2017-Oct-10 13:29N 43°24' E 004°51'0 0.0
2017-Oct-10 12:59N 43°24' E 004°51'0 0.0
2017-Oct-10 12:26N 43°24' E 004°51'0 0.0
2017-Oct-10 11:59N 43°24' E 004°51'0 0.0
2017-Oct-10 11:28N 43°24' E 004°51'0 0.0
2017-Oct-10 10:58N 43°24' E 004°51'0 0.0
2017-Oct-10 08:05N 43°24' E 004°51'0 0.0
2017-Oct-10 08:00N 43°24' E 004°51'0 0.0
2017-Oct-10 07:28N 43°24' E 004°51'0 0.0
2017-Oct-10 06:58N 43°24' E 004°51'0 0.0
2017-Oct-10 06:28N 43°24' E 004°51'0 0.0
2017-Oct-10 05:52N 43°24' E 004°51'0 0.1
2017-Oct-10 05:12N 43°24' E 004°51'0 0.0
2017-Oct-10 05:00N 43°24' E 004°51'0 0.0
2017-Oct-10 04:29N 43°24' E 004°51'0 0.0
2017-Oct-10 03:59N 43°24' E 004°51'0 0.0
2017-Oct-10 03:26N 43°24' E 004°51'0 0.0
2017-Oct-10 02:50N 43°24' E 004°51'0 0.0
2017-Oct-10 02:28N 43°24' E 004°51'0 0.0
2017-Oct-10 01:55N 43°24' E 004°51'0 0.0
2017-Oct-10 01:22N 43°24' E 004°51'0 0.0
2017-Oct-10 00:57N 43°24' E 004°51'0 0.0
2017-Oct-10 00:25N 43°24' E 004°51'0 0.0
2017-Oct-10 00:00N 43°24' E 004°51'0 0.0
2017-Oct-09 23:30N 43°24' E 004°51'0 0.0
2017-Oct-09 22:54N 43°24' E 004°51'0 0.0
2017-Oct-09 22:27N 43°24' E 004°51'0 0.0
2017-Oct-09 21:57N 43°24' E 004°51'0 0.0
2017-Oct-09 21:29N 43°24' E 004°51'0 0.0
2017-Oct-09 20:59N 43°24' E 004°51'0 0.0
2017-Oct-09 20:17N 43°24' E 004°51'0 0.0
2017-Oct-09 19:59N 43°24' E 004°51'0 0.0
2017-Oct-09 19:22N 43°24' E 004°51'0 0.0
2017-Oct-09 18:52N 43°24' E 004°51'0 0.0
2017-Oct-09 18:28N 43°24' E 004°51'0 0.0
2017-Oct-09 17:58N 43°24' E 004°51'0 0.0
2017-Oct-09 17:22N 43°24' E 004°51'0 0.0
2017-Oct-09 16:57N 43°24' E 004°51'0 0.0
2017-Oct-09 16:30N 43°24' E 004°51'0 0.0
2017-Oct-09 16:00N 43°24' E 004°51'0 0.0
2017-Oct-09 15:30N 43°24' E 004°51'0 0.0
2017-Oct-09 15:00N 43°24' E 004°51'0 0.0
2017-Oct-09 14:29N 43°24' E 004°51'0 0.0
2017-Oct-09 13:59N 43°24' E 004°51'0 0.0
2017-Oct-09 13:29N 43°24' E 004°51'0 0.0
2017-Oct-09 12:59N 43°24' E 004°51'0 0.0
2017-Oct-09 12:22N 43°24' E 004°51'0 0.0
2017-Oct-09 11:55N 43°24' E 004°51'0 0.0
2017-Oct-09 11:25N 43°24' E 004°51'0 0.0
2017-Oct-09 10:55N 43°24' E 004°51'0 0.0
2017-Oct-09 10:31N 43°24' E 004°51'0 0.0
2017-Oct-09 10:00N 43°24' E 004°51'0 0.0
2017-Oct-09 09:30N 43°24' E 004°51'0 0.0
2017-Oct-09 08:57N 43°24' E 004°51'0 0.0
2017-Oct-09 08:30N 43°24' E 004°51'0 0.0
2017-Oct-09 07:59N 43°24' E 004°51'0 0.1
2017-Oct-09 07:26N 43°24' E 004°51'0 0.0
2017-Oct-09 02:18N 43°24' E 004°51'0 0.0
2017-Oct-08 18:02N 43°24' E 004°51'0 0.0
2017-Oct-08 16:22N 43°24' E 004°51'0 0.0
2017-Oct-08 15:55N 43°24' E 004°51'0 0.0
2017-Oct-08 15:22N 43°24' E 004°51'0 0.0
2017-Oct-08 14:31N 43°24' E 004°51'0 0.0
2017-Oct-08 14:00N 43°24' E 004°51'2 4.3
2017-Oct-08 13:29N 43°24' E 004°54'5 9.3
2017-Oct-08 12:58N 43°21' E 004°59'6 9.1
2017-Oct-08 12:20N 43°15' E 005°01'3 9.7
2017-Oct-08 12:00N 43°12' E 005°02'5 9.4
2017-Oct-08 11:28N 43°07' E 005°01'6 9.5
2017-Oct-08 10:48N 43°01' E 004°59'3 9.0
2017-Oct-08 10:30N 42°58' E 004°58'125 9.9
2017-Oct-07 21:55N 41°00' E 004°04'  
Track history (hours):
 
Tides and Currents Weather Stations Pressure Air Temp Water Temp Dewpoint Dewpoint Depression Visibility Wind Speed Wind Dir Waves Ship Positions

Ns Sabina

Last reported at 2017-Oct-17 06:00 UTC. Time now 2017-Oct-17 06:19 UTC.
Position N 37°57' E 023°36'.

Length 82 m; draft 4.9 m.

Type: Cargo ship. MMSI: 371763000.

Date/timePositionNaut miles runAvg speedWind from/ knotsBaromVisibWave heightAir tempDewpointWater temp
2017-Oct-17 06:00N 37°57' E 023°36'0 0.0
2017-Oct-17 05:30N 37°57' E 023°36'0 0.0
2017-Oct-17 05:00N 37°57' E 023°36'0 0.0
2017-Oct-17 04:30N 37°57' E 023°36'0 0.0
2017-Oct-17 04:00N 37°57' E 023°36'0 0.0
2017-Oct-17 03:30N 37°57' E 023°36'0 0.0
2017-Oct-17 03:00N 37°57' E 023°36'0 0.0
2017-Oct-17 02:30N 37°57' E 023°36'0 0.0
2017-Oct-17 02:00N 37°57' E 023°36'0 0.0
2017-Oct-17 01:30N 37°57' E 023°36'0 0.0
2017-Oct-17 01:00N 37°57' E 023°36'0 0.0
2017-Oct-17 00:30N 37°57' E 023°36'0 0.0
2017-Oct-17 00:00N 37°57' E 023°36'0 0.0
2017-Oct-16 23:30N 37°57' E 023°36'0 0.0
2017-Oct-16 23:00N 37°57' E 023°36'0 0.0
2017-Oct-16 22:30N 37°57' E 023°36'0 0.0
2017-Oct-16 22:00N 37°57' E 023°36'0 0.0
2017-Oct-16 21:30N 37°57' E 023°36'0 0.0
2017-Oct-16 21:00N 37°57' E 023°36'0 0.0
2017-Oct-16 20:30N 37°57' E 023°36'0 0.0
2017-Oct-16 20:00N 37°57' E 023°36'0 0.0
2017-Oct-16 19:30N 37°57' E 023°36'0 0.0
2017-Oct-16 19:00N 37°57' E 023°36'0 0.0
2017-Oct-16 18:30N 37°57' E 023°36'0 0.0
2017-Oct-16 18:00N 37°57' E 023°36'0 0.0
2017-Oct-16 17:30N 37°57' E 023°36'0 0.0
2017-Oct-16 17:00N 37°57' E 023°36'0 0.0
2017-Oct-16 16:30N 37°57' E 023°36'0 0.0
2017-Oct-16 16:00N 37°57' E 023°36'0 0.0
2017-Oct-16 15:30N 37°57' E 023°36'0 0.0
2017-Oct-16 15:00N 37°57' E 023°36'0 0.0
2017-Oct-16 14:00N 37°57' E 023°36'0 0.0
2017-Oct-16 13:30N 37°57' E 023°36'0 0.0
2017-Oct-16 13:00N 37°57' E 023°36'0 0.0
2017-Oct-16 12:30N 37°57' E 023°36'0 0.0
2017-Oct-16 12:00N 37°57' E 023°36'0 0.0
2017-Oct-16 11:30N 37°57' E 023°36'0 0.0
2017-Oct-16 11:00N 37°57' E 023°36'0 0.0
2017-Oct-16 10:30N 37°57' E 023°36'0 0.0
2017-Oct-16 10:00N 37°57' E 023°36'0 0.0
2017-Oct-16 09:30N 37°57' E 023°36'0 0.0
2017-Oct-16 09:00N 37°57' E 023°36'0 0.0
2017-Oct-16 08:30N 37°57' E 023°36'0 0.0
2017-Oct-16 08:00N 37°57' E 023°36'0 0.0
2017-Oct-16 07:30N 37°57' E 023°36'0 0.0
2017-Oct-16 07:00N 37°57' E 023°36'0 0.0
2017-Oct-16 06:30N 37°57' E 023°36'0 0.0
2017-Oct-16 06:00N 37°57' E 023°36'1 2.0
2017-Oct-16 05:30N 37°57' E 023°36'1 2.1
2017-Oct-16 05:00N 37°56' E 023°36'2 3.0
2017-Oct-16 04:30N 37°55' E 023°34'0 0.1
2017-Oct-16 04:00N 37°55' E 023°34'0 0.0
2017-Oct-16 03:30N 37°55' E 023°34'0 0.0
2017-Oct-16 03:00N 37°55' E 023°34'0 0.0
2017-Oct-16 02:30N 37°55' E 023°34'0 0.0
2017-Oct-16 02:00N 37°55' E 023°34'0 0.0
2017-Oct-16 01:26N 37°55' E 023°34'0 0.0
2017-Oct-16 00:59N 37°55' E 023°34'0 0.0
2017-Oct-16 00:29N 37°55' E 023°34'0 0.0
2017-Oct-15 23:59N 37°55' E 023°34'0 0.0
2017-Oct-15 23:28N 37°55' E 023°34'0 0.0
2017-Oct-15 22:58N 37°55' E 023°34'0 0.0
2017-Oct-15 22:28N 37°55' E 023°34'0 0.0
2017-Oct-15 21:58N 37°55' E 023°34'0 0.0
2017-Oct-15 21:28N 37°55' E 023°34'0 0.0
2017-Oct-15 21:00N 37°55' E 023°34'0 0.0
2017-Oct-15 20:30N 37°55' E 023°34'0 0.0
2017-Oct-15 20:00N 37°55' E 023°34'0 0.0
2017-Oct-15 19:30N 37°55' E 023°34'0 0.0
2017-Oct-15 19:01N 37°55' E 023°34'1 2.6
2017-Oct-15 18:30N 37°54' E 023°34'3 6.7
2017-Oct-15 18:01N 37°51' E 023°32'4 8.2
2017-Oct-15 17:31N 37°50' E 023°27'4 8.7
2017-Oct-15 17:00N 37°51' E 023°21'5 8.5
2017-Oct-15 16:26N 37°52' E 023°15'4 8.8
2017-Oct-15 16:00N 37°53' E 023°11'4 8.7
2017-Oct-15 15:31N 37°53' E 023°05'4 7.8
2017-Oct-15 15:00N 37°55' E 023°01'4 3.6
2017-Oct-15 13:51N 37°58' E 022°58'336 6.9
2017-Oct-13 13:16N 37°54' E 015°51'410.0
2017-Oct-13 12:52N 37°54' E 015°46'4 9.4
2017-Oct-13 12:25N 37°56' E 015°41'4 9.5
2017-Oct-13 12:00N 37°59' E 015°38'5 9.4
2017-Oct-13 11:30N 38°03' E 015°36'510.2
2017-Oct-13 11:00N 38°08' E 015°36'5 9.7
2017-Oct-13 10:30N 38°13' E 015°36'4 8.3
2017-Oct-13 10:01N 38°16' E 015°40'5 8.8
2017-Oct-13 09:28N 38°20' E 015°37'5 9.9
2017-Oct-13 09:01N 38°22' E 015°32'5 9.8
2017-Oct-13 08:29N 38°24' E 015°26'5 9.8
2017-Oct-13 08:00N 38°27' E 015°21'5 9.9
2017-Oct-13 07:29N 38°30' E 015°15'7 9.9
2017-Oct-13 06:49N 38°33' E 015°08'  
2017-Oct-10 23:58N 43°04' E 005°17'5 9.1
2017-Oct-10 23:28N 43°07' E 005°12'4 9.3
2017-Oct-10 23:00N 43°09' E 005°07'5 9.4
2017-Oct-10 22:30N 43°12' E 005°01'5 9.9
2017-Oct-10 22:00N 43°17' E 004°59'5 9.7
2017-Oct-10 21:30N 43°21' E 004°58'4 8.5
2017-Oct-10 21:00N 43°24' E 004°53'2 3.3
2017-Oct-10 20:30N 43°24' E 004°51'0 0.0
2017-Oct-10 19:26N 43°24' E 004°51'0 0.0
2017-Oct-10 18:56N 43°24' E 004°51'0 0.0
2017-Oct-10 18:25N 43°24' E 004°51'0 0.0
2017-Oct-10 17:58N 43°24' E 004°51'0 0.0
2017-Oct-10 17:28N 43°24' E 004°51'0 0.0
2017-Oct-10 16:58N 43°24' E 004°51'0 0.0
2017-Oct-10 16:25N 43°24' E 004°51'0 0.0
2017-Oct-10 15:57N 43°24' E 004°51'0 0.0
2017-Oct-10 15:30N 43°24' E 004°51'0 0.0
2017-Oct-10 14:57N 43°24' E 004°51'0 0.0
2017-Oct-10 14:00N 43°24' E 004°51'0 0.0
2017-Oct-10 13:29N 43°24' E 004°51'0 0.0
2017-Oct-10 12:59N 43°24' E 004°51'0 0.0
2017-Oct-10 12:26N 43°24' E 004°51'0 0.0
2017-Oct-10 11:59N 43°24' E 004°51'0 0.0
2017-Oct-10 11:28N 43°24' E 004°51'0 0.0
2017-Oct-10 10:58N 43°24' E 004°51'0 0.0
2017-Oct-10 08:05N 43°24' E 004°51'0 0.0
2017-Oct-10 08:00N 43°24' E 004°51'0 0.0
2017-Oct-10 07:28N 43°24' E 004°51'0 0.0
2017-Oct-10 06:58N 43°24' E 004°51'0 0.0
2017-Oct-10 06:28N 43°24' E 004°51'0 0.0
2017-Oct-10 05:52N 43°24' E 004°51'0 0.1
2017-Oct-10 05:12N 43°24' E 004°51'0 0.0
2017-Oct-10 05:00N 43°24' E 004°51'0 0.0
2017-Oct-10 04:29N 43°24' E 004°51'0 0.0
2017-Oct-10 03:59N 43°24' E 004°51'0 0.0
2017-Oct-10 03:26N 43°24' E 004°51'0 0.0
2017-Oct-10 02:50N 43°24' E 004°51'0 0.0
2017-Oct-10 02:28N 43°24' E 004°51'0 0.0
2017-Oct-10 01:55N 43°24' E 004°51'0 0.0
2017-Oct-10 01:22N 43°24' E 004°51'0 0.0
2017-Oct-10 00:57N 43°24' E 004°51'0 0.0
2017-Oct-10 00:25N 43°24' E 004°51'0 0.0
2017-Oct-10 00:00N 43°24' E 004°51'0 0.0
2017-Oct-09 23:30N 43°24' E 004°51'0 0.0
2017-Oct-09 22:54N 43°24' E 004°51'0 0.0
2017-Oct-09 22:27N 43°24' E 004°51'0 0.0
2017-Oct-09 21:57N 43°24' E 004°51'0 0.0
2017-Oct-09 21:29N 43°24' E 004°51'0 0.0
2017-Oct-09 20:59N 43°24' E 004°51'0 0.0
2017-Oct-09 20:17N 43°24' E 004°51'0 0.0
2017-Oct-09 19:59N 43°24' E 004°51'0 0.0
2017-Oct-09 19:22N 43°24' E 004°51'0 0.0
2017-Oct-09 18:52N 43°24' E 004°51'0 0.0
2017-Oct-09 18:28N 43°24' E 004°51'0 0.0
2017-Oct-09 17:58N 43°24' E 004°51'0 0.0
2017-Oct-09 17:22N 43°24' E 004°51'0 0.0
2017-Oct-09 16:57N 43°24' E 004°51'0 0.0
2017-Oct-09 16:30N 43°24' E 004°51'0 0.0
2017-Oct-09 16:00N 43°24' E 004°51'0 0.0
2017-Oct-09 15:30N 43°24' E 004°51'0 0.0
2017-Oct-09 15:00N 43°24' E 004°51'0 0.0
2017-Oct-09 14:29N 43°24' E 004°51'0 0.0
2017-Oct-09 13:59N 43°24' E 004°51'0 0.0
2017-Oct-09 13:29N 43°24' E 004°51'0 0.0
2017-Oct-09 12:59N 43°24' E 004°51'0 0.0
2017-Oct-09 12:22N 43°24' E 004°51'0 0.0
2017-Oct-09 11:55N 43°24' E 004°51'0 0.0
2017-Oct-09 11:25N 43°24' E 004°51'0 0.0
2017-Oct-09 10:55N 43°24' E 004°51'0 0.0
2017-Oct-09 10:31N 43°24' E 004°51'0 0.0
2017-Oct-09 10:00N 43°24' E 004°51'0 0.0
2017-Oct-09 09:30N 43°24' E 004°51'0 0.0
2017-Oct-09 08:57N 43°24' E 004°51'0 0.0
2017-Oct-09 08:30N 43°24' E 004°51'0 0.0
2017-Oct-09 07:59N 43°24' E 004°51'0 0.1
2017-Oct-09 07:26N 43°24' E 004°51'0 0.0
2017-Oct-09 02:18N 43°24' E 004°51'0 0.0
2017-Oct-08 18:02N 43°24' E 004°51'0 0.0
2017-Oct-08 16:22N 43°24' E 004°51'0 0.0
2017-Oct-08 15:55N 43°24' E 004°51'0 0.0
2017-Oct-08 15:22N 43°24' E 004°51'0 0.0
2017-Oct-08 14:31N 43°24' E 004°51'0 0.0
2017-Oct-08 14:00N 43°24' E 004°51'2 4.3
2017-Oct-08 13:29N 43°24' E 004°54'5 9.3
2017-Oct-08 12:58N 43°21' E 004°59'6 9.1
2017-Oct-08 12:20N 43°15' E 005°01'3 9.7
2017-Oct-08 12:00N 43°12' E 005°02'5 9.4
2017-Oct-08 11:28N 43°07' E 005°01'6 9.5
2017-Oct-08 10:48N 43°01' E 004°59'3 9.0
2017-Oct-08 10:30N 42°58' E 004°58'125 9.9
2017-Oct-07 21:55N 41°00' E 004°04'  

Dump ship's entire track history